Wadsworth, Nevada
Current Conditions -  °F | °C
As of 11:55 PM on Wednesday 17 Dec 2014 (Local Time) from KRNO Reporting Station
Scattered Clouds Scattered Clouds  
Wind Chill: 36°   Ceiling: Unl
Heat Index: 36°   Visibility: 10mi
Dew Point: 28°   Wind: 0mph
Humidity: 73%   Direction: NA
Pressure: 30.05"   Gusts: NA
Location:  39.63°N, 119.29°W
Report Text: KRNO 180755Z 00000KT 10SM SCT075 SCT200 02/M02 A3005 RMK AO2 SLP167 T00221022 400941006
Loading
Personal Weather Stations






























Interactive Weather Map New forecast layout! Learn more

10-Day Weather Forecast

Advertisements
Track Severe Weather on mobile